Time;durP1;ratioP1;P1;durP2;ratioP2;P2;SDS_P1;SDS_P2;PMS_P1;PMS_P2;Temp;Humidity;BMP_temperature;BMP_pressure;BME280_temperature;BME280_humidity;BME280_pressure;Samples;Min_cycle;Max_cycle;Signal;HPM_P1;HPM_P2
2021/08/13 00:01:12;;;;;;;4.03;3.83;;;25.00;57.90;;;;;;5036153;28;20064;-84
2021/08/13 00:03:38;;;;;;;4.80;4.40;;;25.00;58.00;;;;;;5035221;28;20020;-85
2021/08/13 00:06:04;;;;;;;4.45;4.25;;;25.00;58.10;;;;;;5030982;28;20379;-84
2021/08/13 00:08:30;;;;;;;4.60;4.30;;;24.90;58.00;;;;;;5038020;28;20018;-85
2021/08/13 00:10:56;;;;;;;4.20;4.00;;;24.90;58.20;;;;;;5035255;28;20402;-84
2021/08/13 00:13:22;;;;;;;4.50;4.10;;;24.90;58.20;;;;;;5036126;28;20493;-84
2021/08/13 00:15:48;;;;;;;3.90;3.70;;;24.80;58.30;;;;;;5035911;28;20045;-85
2021/08/13 00:18:14;;;;;;;5.05;3.72;;;24.80;58.40;;;;;;5030352;28;20503;-86
2021/08/13 00:20:41;;;;;;;3.75;3.55;;;24.80;58.40;;;;;;5035926;28;20030;-84
2021/08/13 00:23:07;;;;;;;3.17;3.08;;;24.70;58.50;;;;;;5044777;28;20072;-85
2021/08/13 00:25:33;;;;;;;3.45;3.25;;;24.70;58.50;;;;;;5038656;28;20033;-84
2021/08/13 00:27:59;;;;;;;3.70;3.50;;;24.60;58.60;;;;;;5036143;28;20037;-84
2021/08/13 00:30:25;;;;;;;3.67;3.38;;;24.60;58.60;;;;;;5033847;28;20033;-83
2021/08/13 00:32:51;;;;;;;3.33;3.08;;;24.60;58.70;;;;;;5033025;28;20044;-85
2021/08/13 00:35:17;;;;;;;3.38;3.17;;;24.60;58.80;;;;;;5036241;28;20040;-84
2021/08/13 00:37:43;;;;;;;4.18;3.80;;;24.50;58.80;;;;;;5034541;28;20494;-84
2021/08/13 00:40:09;;;;;;;4.25;3.88;;;24.50;58.90;;;;;;5035897;28;20029;-84
2021/08/13 00:42:35;;;;;;;5.03;4.63;;;24.50;59.00;;;;;;5033037;28;20036;-84
2021/08/13 00:45:02;;;;;;;4.60;4.30;;;24.40;59.00;;;;;;5031441;28;20045;-83
2021/08/13 00:47:28;;;;;;;4.63;4.43;;;24.40;59.10;;;;;;5036836;28;20033;-85
2021/08/13 00:49:54;;;;;;;5.15;4.85;;;24.40;59.20;;;;;;5035358;28;20034;-85
2021/08/13 00:52:21;;;;;;;5.38;4.95;;;24.40;59.20;;;;;;5017197;28;20042;-84
2021/08/13 00:54:47;;;;;;;5.30;4.93;;;24.30;59.30;;;;;;5035606;28;20025;-84
2021/08/13 00:57:13;;;;;;;5.35;5.07;;;24.30;59.30;;;;;;5029350;28;20057;-84
2021/08/13 00:59:40;;;;;;;4.95;4.70;;;24.20;59.40;;;;;;5034308;28;20025;-84
2021/08/13 01:02:07;;;;;;;5.10;4.70;;;24.20;59.50;;;;;;5033884;28;20033;-84
2021/08/13 01:04:33;;;;;;;4.63;4.22;;;24.20;59.60;;;;;;5033933;28;20034;-84
2021/08/13 01:07:01;;;;;;;4.32;4.13;;;24.10;59.60;;;;;;5035233;28;20466;-85
2021/08/13 01:09:27;;;;;;;4.13;3.92;;;24.10;59.70;;;;;;5016597;28;20040;-84
2021/08/13 01:12:34;;;;;;;4.05;3.85;;;24.10;59.70;;;;;;5014650;28;20462;-83
2021/08/13 01:15:08;;;;;;;4.93;4.13;;;24.00;59.80;;;;;;5026243;28;20034;-85
2021/08/13 01:17:38;;;;;;;3.95;3.75;;;24.00;59.80;;;;;;4989800;28;20052;-84
2021/08/13 01:20:11;;;;;;;3.88;3.67;;;24.00;59.90;;;;;;5014322;28;20034;-84
2021/08/13 01:22:42;;;;;;;3.95;3.75;;;24.00;60.00;;;;;;5014331;28;20034;-84
2021/08/13 01:25:08;;;;;;;3.45;3.25;;;23.90;60.00;;;;;;4994410;28;20041;-84
2021/08/13 01:27:36;;;;;;;3.83;3.58;;;23.90;60.00;;;;;;4997230;28;20038;-85
2021/08/13 01:30:07;;;;;;;3.63;3.42;;;23.80;60.10;;;;;;4992686;28;20041;-81
2021/08/13 01:32:38;;;;;;;3.83;3.63;;;23.90;60.30;;;;;;5010193;28;20438;-84
2021/08/13 01:35:12;;;;;;;3.50;3.30;;;23.80;60.30;;;;;;4997815;28;20058;-84
2021/08/13 01:37:48;;;;;;;3.97;3.50;;;23.80;60.40;;;;;;4997958;28;20049;-84
2021/08/13 01:40:15;;;;;;;3.53;3.30;;;23.70;60.30;;;;;;4998016;28;20041;-84
2021/08/13 01:42:43;;;;;;;3.28;3.15;;;23.70;60.40;;;;;;4997856;28;20049;-84
2021/08/13 01:45:09;;;;;;;3.78;3.47;;;23.70;60.50;;;;;;4977459;28;20034;-84
2021/08/13 01:47:35;;;;;;;3.83;3.63;;;23.70;60.60;;;;;;4997466;28;20034;-86
2021/08/13 01:50:02;;;;;;;3.40;3.20;;;23.60;60.60;;;;;;5030698;28;20042;-84
2021/08/13 01:52:28;;;;;;;4.18;3.80;;;23.60;60.70;;;;;;5035459;28;20420;-84
2021/08/13 01:54:54;;;;;;;4.40;3.90;;;23.50;60.80;;;;;;5043808;28;20021;-85
2021/08/13 01:57:21;;;;;;;3.70;3.50;;;23.50;60.90;;;;;;5013948;28;20060;-84
2021/08/13 01:59:48;;;;;;;3.47;3.28;;;23.50;60.90;;;;;;4999173;28;20387;-84
2021/08/13 02:02:14;;;;;;;3.30;3.10;;;23.50;60.90;;;;;;5021328;28;20038;-85
2021/08/13 02:04:42;;;;;;;3.63;3.42;;;23.40;61.00;;;;;;5021465;28;20033;-83
2021/08/13 02:07:11;;;;;;;5.07;3.28;;;23.40;61.00;;;;;;5026457;28;20025;-85
2021/08/13 02:09:38;;;;;;;3.40;3.20;;;23.40;61.10;;;;;;5028151;28;20029;-82
2021/08/13 02:12:04;;;;;;;3.63;3.42;;;23.30;61.10;;;;;;5009879;28;20033;-84
2021/08/13 02:14:30;;;;;;;3.50;3.30;;;23.30;61.30;;;;;;5029512;28;20029;-84
2021/08/13 02:16:56;;;;;;;3.75;3.55;;;23.30;62.20;;;;;;5025992;28;20045;-84
2021/08/13 02:19:37;;;;;;;3.53;3.40;;;23.20;61.40;;;;;;5025778;28;20418;-83
2021/08/13 02:22:03;;;;;;;3.78;3.58;;;23.20;61.40;;;;;;5025874;28;20036;-83
2021/08/13 02:24:29;;;;;;;3.20;3.10;;;23.20;61.40;;;;;;5025810;28;20390;-84
2021/08/13 02:26:55;;;;;;;3.42;3.22;;;23.20;61.30;;;;;;5027075;28;20044;-85
2021/08/13 02:29:21;;;;;;;3.95;3.65;;;23.20;61.40;;;;;;5028130;28;20037;-84
2021/08/13 02:31:48;;;;;;;3.20;3.10;;;23.10;61.30;;;;;;5024855;28;20041;-84
2021/08/13 02:34:14;;;;;;;3.80;3.60;;;23.10;61.50;;;;;;5025376;28;20056;-84
2021/08/13 02:36:58;;;;;;;3.70;3.50;;;23.00;61.50;;;;;;5030119;28;20044;-84
2021/08/13 02:39:53;;;;;;;3.42;3.22;;;22.90;61.60;;;;;;5033325;28;20474;-85
2021/08/13 02:42:33;;;;;;;3.35;3.05;;;22.90;61.60;;;;;;5022011;28;20042;-84
2021/08/13 02:45:00;;;;;;;3.08;2.97;;;22.80;61.60;;;;;;5018275;28;20033;-85
2021/08/13 02:47:26;;;;;;;3.10;3.00;;;22.80;61.70;;;;;;5037298;28;20486;-84
2021/08/13 02:49:55;;;;;;;3.08;2.92;;;22.70;61.70;;;;;;5006020;28;20049;-85
2021/08/13 02:52:30;;;;;;;3.92;3.42;;;22.70;61.80;;;;;;5037502;28;20041;-84
2021/08/13 02:55:03;;;;;;;3.42;3.17;;;22.60;61.80;;;;;;5036757;28;20028;-84
2021/08/13 02:57:31;;;;;;;3.30;3.10;;;22.60;61.90;;;;;;5035555;28;20041;-85
2021/08/13 02:59:57;;;;;;;3.10;2.90;;;22.60;61.90;;;;;;5016635;28;20026;-84
2021/08/13 03:02:23;;;;;;;3.00;2.90;;;22.50;62.00;;;;;;5020977;28;20041;-85
2021/08/13 03:04:50;;;;;;;3.40;3.20;;;22.40;62.10;;;;;;5020166;28;20525;-84
2021/08/13 03:07:16;;;;;;;2.92;2.83;;;22.40;62.20;;;;;;5005892;28;20053;-84
2021/08/13 03:09:42;;;;;;;3.03;2.88;;;22.30;62.30;;;;;;5036348;28;20025;-85
2021/08/13 03:12:09;;;;;;;2.95;2.75;;;22.20;62.30;;;;;;5016047;28;20026;-84
2021/08/13 03:14:35;;;;;;;2.50;2.40;;;22.20;62.40;;;;;;5020973;28;20032;-83
2021/08/13 03:17:02;;;;;;;2.90;2.67;;;22.10;62.50;;;;;;5037200;28;20104;-84
2021/08/13 03:19:28;;;;;;;2.60;2.50;;;22.00;62.50;;;;;;5036231;28;20025;-84
2021/08/13 03:21:54;;;;;;;2.53;2.42;;;22.00;62.60;;;;;;5036118;28;20036;-84
2021/08/13 03:24:20;;;;;;;3.38;2.55;;;22.00;62.60;;;;;;5033729;28;20033;-86
2021/08/13 03:26:47;;;;;;;4.15;3.15;;;22.00;62.70;;;;;;5035652;28;20466;-84
2021/08/13 03:29:14;;;;;;;2.72;2.63;;;21.90;62.70;;;;;;5051559;28;20050;-84
2021/08/13 03:31:44;;;;;;;2.75;2.65;;;21.80;62.70;;;;;;5035501;28;20029;-84
2021/08/13 03:34:11;;;;;;;3.03;2.83;;;21.80;62.70;;;;;;5034324;28;20037;-84
2021/08/13 03:36:37;;;;;;;3.00;2.80;;;21.80;62.60;;;;;;5035623;28;20037;-84
2021/08/13 03:39:07;;;;;;;3.05;2.85;;;21.80;62.80;;;;;;5032708;28;20034;-84
2021/08/13 03:41:33;;;;;;;4.78;3.28;;;21.80;62.80;;;;;;5045140;28;20378;-83
2021/08/13 03:43:59;;;;;;;2.90;2.72;;;21.70;62.90;;;;;;5035447;28;20029;-86
2021/08/13 03:46:25;;;;;;;3.15;2.95;;;21.60;62.90;;;;;;5035157;28;20060;-83
2021/08/13 03:48:51;;;;;;;3.30;2.95;;;21.60;63.00;;;;;;5034261;28;20029;-86
2021/08/13 03:51:17;;;;;;;3.20;2.88;;;21.60;63.00;;;;;;5034150;28;20030;-85
2021/08/13 03:53:44;;;;;;;2.88;2.67;;;21.60;63.10;;;;;;5036049;28;20108;-84
2021/08/13 03:56:10;;;;;;;2.60;2.50;;;21.50;63.10;;;;;;5034982;28;20502;-84
2021/08/13 03:58:36;;;;;;;2.90;2.70;;;21.50;63.10;;;;;;5036284;28;20041;-84
2021/08/13 04:01:02;;;;;;;3.10;2.90;;;21.50;63.10;;;;;;5034490;28;20390;-84
2021/08/13 04:03:28;;;;;;;2.55;2.45;;;21.40;63.00;;;;;;5035386;28;20054;-84
2021/08/13 04:05:54;;;;;;;7.45;3.08;;;21.40;63.10;;;;;;5033203;28;20056;-84
2021/08/13 04:08:21;;;;;;;3.28;3.08;;;21.40;63.20;;;;;;5038346;28;20036;-85
2021/08/13 04:10:47;;;;;;;3.00;2.90;;;21.40;63.30;;;;;;5036387;28;20026;-84
2021/08/13 04:13:13;;;;;;;2.88;2.67;;;21.40;63.30;;;;;;5032798;28;20374;-84
2021/08/13 04:15:40;;;;;;;2.55;2.45;;;21.40;63.30;;;;;;5018257;28;20041;-85
2021/08/13 04:18:06;;;;;;;3.33;3.13;;;21.40;63.30;;;;;;5030967;28;20036;-85
2021/08/13 04:20:32;;;;;;;4.28;2.78;;;21.30;63.20;;;;;;5020326;28;20021;-84
2021/08/13 04:22:58;;;;;;;2.90;2.70;;;21.30;63.20;;;;;;5017996;28;20046;-84
2021/08/13 04:25:24;;;;;;;3.13;2.92;;;21.30;63.30;;;;;;5036222;28;20482;-83
2021/08/13 04:27:51;;;;;;;2.72;2.63;;;21.30;63.30;;;;;;5035640;28;20033;-83
2021/08/13 04:30:17;;;;;;;2.90;2.70;;;21.20;63.30;;;;;;5014773;28;20033;-84
2021/08/13 04:32:43;;;;;;;2.55;2.40;;;21.20;63.40;;;;;;5035420;28;20356;-83
2021/08/13 04:35:09;;;;;;;3.40;2.88;;;21.10;63.40;;;;;;5035854;28;20036;-84
2021/08/13 04:37:35;;;;;;;3.53;2.95;;;21.10;63.40;;;;;;5034681;28;20037;-84
2021/08/13 04:40:02;;;;;;;2.83;2.63;;;21.10;63.50;;;;;;5018207;28;20036;-84
2021/08/13 04:42:28;;;;;;;2.60;2.50;;;21.00;63.50;;;;;;5034184;28;20037;-84
2021/08/13 04:44:54;;;;;;;2.63;2.40;;;21.10;63.50;;;;;;5031328;28;20397;-83
2021/08/13 04:47:20;;;;;;;2.70;2.50;;;21.10;63.40;;;;;;5046975;28;20040;-84
2021/08/13 04:49:46;;;;;;;2.78;2.63;;;21.10;63.60;;;;;;5037530;28;20516;-84
2021/08/13 04:52:13;;;;;;;2.60;2.50;;;21.00;63.60;;;;;;5034138;28;20041;-84
2021/08/13 04:54:39;;;;;;;2.83;2.67;;;20.90;63.60;;;;;;5035180;28;20040;-84
2021/08/13 04:57:05;;;;;;;10.63;3.08;;;20.90;63.60;;;;;;5030860;28;20065;-84
2021/08/13 04:59:31;;;;;;;2.58;2.40;;;20.90;63.60;;;;;;5042581;28;20025;-84
2021/08/13 05:01:58;;;;;;;2.30;2.20;;;20.90;63.60;;;;;;5001050;28;20037;-83
2021/08/13 05:04:24;;;;;;;2.88;2.70;;;20.90;63.60;;;;;;5035424;28;20397;-84
2021/08/13 05:06:50;;;;;;;2.60;2.50;;;20.90;63.60;;;;;;5035476;28;20033;-84
2021/08/13 05:09:16;;;;;;;2.40;2.30;;;20.90;63.60;;;;;;5032438;28;20029;-84
2021/08/13 05:11:42;;;;;;;3.08;2.55;;;20.80;63.60;;;;;;5033165;28;20037;-85
2021/08/13 05:14:08;;;;;;;2.50;2.40;;;20.80;63.60;;;;;;5034961;28;20026;-84
2021/08/13 05:16:34;;;;;;;2.47;2.38;;;20.80;63.70;;;;;;5034566;28;20049;-84
2021/08/13 05:19:00;;;;;;;3.00;2.80;;;20.70;63.70;;;;;;5035213;28;20029;-83
2021/08/13 05:21:27;;;;;;;2.45;2.35;;;20.80;63.80;;;;;;5032630;28;20029;-84
2021/08/13 05:23:53;;;;;;;2.70;2.60;;;20.70;63.70;;;;;;5032227;28;20080;-84
2021/08/13 05:26:19;;;;;;;2.97;2.78;;;20.70;63.70;;;;;;5036770;28;20463;-83
2021/08/13 05:28:45;;;;;;;2.40;2.30;;;20.80;63.70;;;;;;5034909;28;20041;-84
2021/08/13 05:31:11;;;;;;;3.00;2.80;;;20.80;64.40;;;;;;5033284;28;20029;-84
2021/08/13 05:33:37;;;;;;;2.40;2.20;;;20.80;63.60;;;;;;5034770;28;20052;-84
2021/08/13 05:36:03;;;;;;;2.80;2.60;;;20.70;63.60;;;;;;5012369;28;20402;-84
2021/08/13 05:38:29;;;;;;;2.67;2.58;;;20.70;63.60;;;;;;5037350;28;20026;-84
2021/08/13 05:40:55;;;;;;;2.80;2.70;;;20.70;63.70;;;;;;5034571;28;20371;-86
2021/08/13 05:43:21;;;;;;;2.40;2.30;;;20.70;63.50;;;;;;5033648;28;20036;-83
2021/08/13 05:45:48;;;;;;;2.97;2.80;;;20.70;63.60;;;;;;5033357;28;20474;-82
2021/08/13 05:48:14;;;;;;;2.53;2.42;;;20.70;63.70;;;;;;5031635;28;20029;-83
2021/08/13 05:50:40;;;;;;;2.58;2.47;;;20.70;63.70;;;;;;5034968;28;20022;-84
2021/08/13 05:53:06;;;;;;;3.38;3.17;;;20.70;63.60;;;;;;5034132;28;20021;-84
2021/08/13 05:55:32;;;;;;;2.80;2.60;;;20.70;63.60;;;;;;5034356;28;20500;-83
2021/08/13 05:57:58;;;;;;;2.40;2.30;;;20.70;63.50;;;;;;5034824;28;20049;-84
2021/08/13 06:00:24;;;;;;;2.47;2.38;;;20.70;63.50;;;;;;5029986;28;20478;-85
2021/08/13 06:02:55;;;;;;;2.30;2.20;;;20.70;63.50;;;;;;5045059;28;20041;-85
2021/08/13 06:05:21;;;;;;;2.20;2.10;;;20.60;63.50;;;;;;5036852;28;20025;-83
2021/08/13 06:07:47;;;;;;;2.22;2.13;;;20.60;64.40;;;;;;5033273;28;20034;-84
2021/08/13 06:10:13;;;;;;;2.60;2.50;;;20.60;63.60;;;;;;5033505;28;20036;-84
2021/08/13 06:12:39;;;;;;;2.53;2.42;;;20.60;63.60;;;;;;5038677;28;20029;-84
2021/08/13 06:15:06;;;;;;;2.60;2.50;;;20.60;63.40;;;;;;5016396;28;20034;-84
2021/08/13 06:17:32;;;;;;;2.65;2.55;;;20.70;63.40;;;;;;5047424;28;20041;-84
2021/08/13 06:19:58;;;;;;;3.03;2.83;;;20.70;63.30;;;;;;5038780;28;20398;-84
2021/08/13 06:22:24;;;;;;;6.55;3.15;;;20.80;63.20;;;;;;5038338;28;20045;-83
2021/08/13 06:24:50;;;;;;;3.15;3.05;;;20.80;63.00;;;;;;5038259;28;20413;-85
2021/08/13 06:27:16;;;;;;;3.47;3.28;;;20.90;62.90;;;;;;5035404;28;20044;-84
2021/08/13 06:29:42;;;;;;;2.70;2.60;;;21.00;62.80;;;;;;5037886;28;20034;-85
2021/08/13 06:32:08;;;;;;;2.90;2.70;;;21.10;62.50;;;;;;5038626;28;20041;-84
2021/08/13 06:34:34;;;;;;;2.72;2.63;;;21.20;62.20;;;;;;5038041;28;20045;-84
2021/08/13 06:37:00;;;;;;;2.85;2.75;;;21.30;62.00;;;;;;5037929;28;20038;-84
2021/08/13 06:39:27;;;;;;;3.00;2.90;;;21.50;61.80;;;;;;5036400;28;20453;-85
2021/08/13 06:41:53;;;;;;;3.10;3.00;;;21.60;61.40;;;;;;5033248;28;20052;-84
2021/08/13 06:44:19;;;;;;;3.88;3.55;;;21.70;61.30;;;;;;5040206;28;20478;-83
2021/08/13 06:46:45;;;;;;;3.40;3.20;;;21.80;61.10;;;;;;5035747;28;20044;-84
2021/08/13 06:49:11;;;;;;;3.90;3.60;;;22.00;61.00;;;;;;5036666;28;20056;-84
2021/08/13 06:51:37;;;;;;;3.83;3.63;;;22.00;60.80;;;;;;5037966;28;20029;-84
2021/08/13 06:54:03;;;;;;;3.80;3.60;;;22.10;60.70;;;;;;5031602;28;20467;-85
2021/08/13 06:56:29;;;;;;;4.40;4.20;;;22.10;60.60;;;;;;5038435;28;20034;-84
2021/08/13 06:58:58;;;;;;;4.38;4.18;;;22.20;60.60;;;;;;5037673;28;20033;-84
2021/08/13 07:01:24;;;;;;;4.13;3.92;;;22.30;60.50;;;;;;5036071;28;20370;-85
2021/08/13 07:03:50;;;;;;;4.10;3.90;;;22.30;60.30;;;;;;5037676;28;20032;-84
2021/08/13 07:06:16;;;;;;;4.30;4.10;;;22.40;60.20;;;;;;5033483;28;20505;-84
2021/08/13 07:08:42;;;;;;;4.50;4.30;;;22.50;60.00;;;;;;5019228;28;20026;-86
2021/08/13 07:11:08;;;;;;;4.57;4.35;;;22.70;59.90;;;;;;5037164;28;20025;-85
2021/08/13 07:13:34;;;;;;;4.10;3.80;;;22.90;59.70;;;;;;5035278;28;20033;-84
2021/08/13 07:16:00;;;;;;;3.60;3.40;;;23.10;59.40;;;;;;5036087;28;20034;-85
2021/08/13 07:18:27;;;;;;;3.80;3.60;;;23.20;59.10;;;;;;5034777;28;20056;-85
2021/08/13 07:20:53;;;;;;;5.70;3.50;;;23.30;58.90;;;;;;5034572;28;20040;-86
2021/08/13 07:23:19;;;;;;;3.92;3.72;;;23.40;58.90;;;;;;5038076;28;20036;-85
2021/08/13 07:25:45;;;;;;;3.88;3.67;;;23.40;58.90;;;;;;5036324;28;20037;-84
2021/08/13 07:28:11;;;;;;;3.90;3.70;;;23.50;58.80;;;;;;5034847;28;20138;-83
2021/08/13 07:30:37;;;;;;;3.67;3.47;;;23.60;58.80;;;;;;5036662;28;20516;-84
2021/08/13 07:33:03;;;;;;;4.60;4.30;;;23.70;58.70;;;;;;5031383;28;20053;-85
2021/08/13 07:35:29;;;;;;;4.93;4.72;;;23.80;58.50;;;;;;5039100;28;20037;-84
2021/08/13 07:37:55;;;;;;;4.90;4.70;;;24.00;58.30;;;;;;5035385;28;20068;-85
2021/08/13 07:40:22;;;;;;;4.90;4.65;;;24.10;58.10;;;;;;5037014;28;20029;-84
2021/08/13 07:42:48;;;;;;;4.88;4.68;;;24.10;58.10;;;;;;5037085;28;20367;-84
2021/08/13 07:45:14;;;;;;;5.53;5.22;;;24.20;58.00;;;;;;5031365;28;20049;-84
2021/08/13 07:47:40;;;;;;;5.43;4.90;;;24.20;58.00;;;;;;5035903;28;20025;-86
2021/08/13 07:50:07;;;;;;;5.53;5.15;;;24.30;57.90;;;;;;5052689;28;20029;-84
2021/08/13 07:52:33;;;;;;;6.68;5.45;;;24.40;57.80;;;;;;5036516;28;20053;-84
2021/08/13 07:54:59;;;;;;;4.90;4.70;;;24.50;57.70;;;;;;5035758;28;20036;-84
2021/08/13 07:57:26;;;;;;;4.78;4.57;;;24.60;57.60;;;;;;5033257;28;20430;-85
2021/08/13 07:59:53;;;;;;;4.43;4.10;;;24.60;57.50;;;;;;5049597;28;20037;-83
2021/08/13 08:02:19;;;;;;;5.55;5.25;;;24.70;57.40;;;;;;5036427;28;20033;-82
2021/08/13 08:04:45;;;;;;;4.53;4.32;;;24.80;57.30;;;;;;5036270;28;20380;-84
2021/08/13 08:07:12;;;;;;;5.05;4.85;;;25.00;57.10;;;;;;5034920;28;20502;-85
2021/08/13 08:09:38;;;;;;;5.72;5.32;;;25.00;57.00;;;;;;5035295;28;20025;-85
2021/08/13 08:12:04;;;;;;;6.32;5.93;;;25.10;56.80;;;;;;5013910;28;20036;-84
2021/08/13 08:14:31;;;;;;;5.80;5.50;;;25.10;56.70;;;;;;5036780;28;20030;-85
2021/08/13 08:16:57;;;;;;;5.80;5.50;;;25.20;56.80;;;;;;5034598;28;20485;-85
2021/08/13 08:19:23;;;;;;;6.10;5.72;;;25.30;56.70;;;;;;5032728;28;20513;-85
2021/08/13 08:21:49;;;;;;;6.03;5.72;;;25.40;56.50;;;;;;5036264;28;20032;-85
2021/08/13 08:24:15;;;;;;;6.57;6.22;;;25.40;56.40;;;;;;5032032;28;20427;-85
2021/08/13 08:26:41;;;;;;;6.53;6.22;;;25.50;56.30;;;;;;5036173;28;20021;-84
2021/08/13 08:29:08;;;;;;;5.18;4.97;;;25.60;56.30;;;;;;5052223;28;20033;-85
2021/08/13 08:31:34;;;;;;;6.03;5.63;;;25.70;56.20;;;;;;5035677;28;20045;-84
2021/08/13 08:34:00;;;;;;;5.93;5.63;;;25.70;56.00;;;;;;5017892;28;20037;-84
2021/08/13 08:36:26;;;;;;;5.85;5.55;;;25.70;55.90;;;;;;5034185;28;20029;-86
2021/08/13 08:38:52;;;;;;;5.72;5.43;;;25.80;55.90;;;;;;5033150;28;20038;-86
2021/08/13 08:41:18;;;;;;;6.07;5.75;;;25.70;55.80;;;;;;5037823;28;20032;-85
2021/08/13 08:43:46;;;;;;;5.88;5.57;;;25.70;55.90;;;;;;5033570;28;20034;-85
2021/08/13 08:46:12;;;;;;;7.07;6.78;;;25.80;56.50;;;;;;5032736;28;20041;-85
2021/08/13 08:48:39;;;;;;;6.22;5.93;;;26.00;55.80;;;;;;5015868;28;20394;-85
2021/08/13 08:51:06;;;;;;;8.18;7.80;;;26.20;55.50;;;;;;4998490;28;20482;-85
2021/08/13 08:53:32;;;;;;;9.32;8.90;;;26.50;55.20;;;;;;5037577;28;20049;-85
2021/08/13 08:55:59;;;;;;;9.57;9.18;;;26.60;54.90;;;;;;5035231;28;20483;-85
2021/08/13 08:58:25;;;;;;;10.27;9.77;;;26.60;54.80;;;;;;5035444;28;20037;-85
2021/08/13 09:00:51;;;;;;;8.88;8.48;;;26.70;54.90;;;;;;5034182;28;20056;-85
2021/08/13 09:03:21;;;;;;;10.07;9.57;;;26.80;54.90;;;;;;5032560;28;20041;-85
2021/08/13 09:05:48;;;;;;;9.23;8.73;;;26.90;54.70;;;;;;5033251;28;20030;-85
2021/08/13 09:08:14;;;;;;;8.48;8.07;;;26.90;54.60;;;;;;5033843;28;20359;-85
2021/08/13 09:10:40;;;;;;;7.60;7.30;;;27.00;54.60;;;;;;5035477;28;20033;-85
2021/08/13 09:13:07;;;;;;;8.05;7.65;;;27.10;54.50;;;;;;5033801;28;20040;-86
2021/08/13 09:15:35;;;;;;;7.97;7.18;;;27.20;54.40;;;;;;5034163;28;20033;-85
2021/08/13 09:18:21;;;;;;;6.82;6.43;;;27.30;54.30;;;;;;5028219;28;20025;-86
2021/08/13 09:20:51;;;;;;;6.85;6.55;;;27.40;54.10;;;;;;5044136;28;20036;-86
2021/08/13 09:23:30;;;;;;;6.25;5.95;;;27.50;54.00;;;;;;5040000;28;20021;-85
2021/08/13 09:25:57;;;;;;;6.03;5.72;;;27.50;54.00;;;;;;5032498;28;20052;-85
2021/08/13 09:28:42;;;;;;;6.93;6.53;;;27.60;53.80;;;;;;5035181;28;20033;-85
2021/08/13 09:31:09;;;;;;;6.35;6.05;;;27.60;53.80;;;;;;5034470;28;20045;-86
2021/08/13 09:33:35;;;;;;;6.25;5.95;;;27.50;53.90;;;;;;5032915;28;20037;-86
2021/08/13 09:36:01;;;;;;;6.10;5.75;;;27.60;53.90;;;;;;5029756;28;20033;-87
2021/08/13 09:38:28;;;;;;;6.88;6.50;;;27.70;53.90;;;;;;5036754;28;20052;-86
2021/08/13 09:40:54;;;;;;;6.68;6.38;;;27.90;53.80;;;;;;5034903;28;20026;-86
2021/08/13 09:43:20;;;;;;;6.95;6.65;;;28.00;53.50;;;;;;5017019;28;20048;-86
2021/08/13 09:46:08;;;;;;;7.05;6.75;;;28.10;53.30;;;;;;5031185;28;20362;-86
2021/08/13 09:48:34;;;;;;;7.43;7.13;;;28.30;53.20;;;;;;5018600;28;20474;-86
2021/08/13 09:51:00;;;;;;;7.53;7.13;;;28.40;53.00;;;;;;5013511;28;20025;-81
2021/08/13 09:53:26;;;;;;;6.78;6.38;;;28.40;53.00;;;;;;5036762;28;20029;-83
2021/08/13 09:55:52;;;;;;;7.40;7.10;;;28.40;53.00;;;;;;5033526;28;20036;-85
2021/08/13 09:58:29;;;;;;;7.80;7.38;;;28.50;52.90;;;;;;5034623;28;20501;-88
2021/08/13 10:00:55;;;;;;;7.43;7.10;;;28.60;52.70;;;;;;5042826;28;20033;-85
2021/08/13 10:03:21;;;;;;;8.93;8.52;;;28.60;52.80;;;;;;5013143;28;20525;-85
2021/08/13 10:06:03;;;;;;;9.95;9.45;;;28.70;52.70;;;;;;5033261;28;20386;-87
2021/08/13 10:08:40;;;;;;;8.55;8.15;;;29.10;52.30;;;;;;5051845;28;20033;-85
2021/08/13 10:11:13;;;;;;;9.93;9.48;;;29.30;51.90;;;;;;5032762;28;20052;-85
2021/08/13 10:13:42;;;;;;;10.70;10.20;;;29.50;51.80;;;;;;5032747;28;20060;-85
2021/08/13 10:16:08;;;;;;;12.43;11.85;;;29.60;51.60;;;;;;5033452;28;20033;-86
2021/08/13 10:18:36;;;;;;;13.50;12.80;;;29.80;51.60;;;;;;5032786;28;20517;-85
2021/08/13 10:21:02;;;;;;;14.40;13.70;;;29.80;51.40;;;;;;5012305;28;20041;-85
2021/08/13 10:23:28;;;;;;;15.25;14.50;;;29.80;51.30;;;;;;5036593;28;20033;-85
2021/08/13 10:25:57;;;;;;;12.30;11.70;;;29.90;51.30;;;;;;5033200;28;20029;-87
2021/08/13 10:28:23;;;;;;;12.23;11.63;;;30.00;51.20;;;;;;5017027;28;20032;-85
2021/08/13 10:30:50;;;;;;;13.63;12.90;;;29.90;51.10;;;;;;5031921;28;20466;-85
2021/08/13 10:33:18;;;;;;;11.48;10.98;;;29.90;51.30;;;;;;5030060;28;20419;-85
2021/08/13 10:35:54;;;;;;;11.50;10.90;;;29.90;51.20;;;;;;5015660;28;20048;-86
2021/08/13 10:38:21;;;;;;;12.38;11.77;;;29.90;51.10;;;;;;5050030;28;20046;-85
2021/08/13 10:40:47;;;;;;;11.85;11.25;;;29.90;51.10;;;;;;5033011;28;20042;-85
2021/08/13 10:43:14;;;;;;;12.98;12.13;;;29.90;51.00;;;;;;5031819;28;20045;-85
2021/08/13 10:45:40;;;;;;;12.32;11.73;;;29.90;51.10;;;;;;5013975;28;20033;-85
2021/08/13 10:48:14;;;;;;;11.80;11.27;;;30.00;51.10;;;;;;5028964;28;20030;-85
2021/08/13 10:50:40;;;;;;;10.32;9.82;;;30.00;50.80;;;;;;5076085;28;20516;-85
2021/08/13 10:53:32;;;;;;;9.68;9.20;;;30.10;50.80;;;;;;5033963;28;20042;-85
2021/08/13 10:55:59;;;;;;;10.40;9.90;;;30.10;50.60;;;;;;5039537;28;20580;-86
2021/08/13 10:58:40;;;;;;;10.13;9.55;;;30.10;50.50;;;;;;5023703;28;20049;-85
2021/08/13 11:01:13;;;;;;;9.65;9.25;;;30.20;50.50;;;;;;5037411;28;20398;-85
2021/08/13 11:03:40;;;;;;;9.98;9.48;;;30.10;50.40;;;;;;5037010;28;20028;-85
2021/08/13 11:06:07;;;;;;;11.35;10.77;;;30.10;51.00;;;;;;5031759;28;20037;-85
2021/08/13 11:08:39;;;;;;;9.27;8.77;;;30.10;50.40;;;;;;5046724;28;20029;-86
2021/08/13 11:11:05;;;;;;;11.70;11.07;;;30.10;50.30;;;;;;5036657;28;20064;-85
2021/08/13 11:13:36;;;;;;;9.75;9.25;;;30.10;50.30;;;;;;5037429;28;20025;-86
2021/08/13 11:16:02;;;;;;;;;;;30.10;50.20;;;;;;5037068;28;20037;-85
2021/08/13 11:18:36;;;;;;;10.82;10.32;;;30.00;50.10;;;;;;5047765;28;19916;-86
2021/08/13 11:21:03;;;;;;;10.10;9.60;;;30.10;50.10;;;;;;5017012;28;20037;-85
2021/08/13 11:23:30;;;;;;;10.82;10.32;;;30.30;50.00;;;;;;5050362;28;20025;-85
2021/08/13 11:25:56;;;;;;;10.98;10.48;;;30.30;49.80;;;;;;5020611;28;20032;-85
2021/08/13 11:28:30;;;;;;;11.38;10.75;;;30.30;49.80;;;;;;5036387;28;20041;-85
2021/08/13 11:30:57;;;;;;;10.70;10.20;;;30.20;49.80;;;;;;5034356;28;20033;-86
2021/08/13 11:33:27;;;;;;;10.02;9.52;;;30.40;49.70;;;;;;5034990;28;20056;-86
2021/08/13 11:35:53;;;;;;;13.00;12.40;;;30.40;49.60;;;;;;5034916;28;20089;-86
2021/08/13 11:38:41;;;;;;;11.88;11.27;;;30.60;49.40;;;;;;5038890;28;20041;-85
2021/08/13 11:41:23;;;;;;;9.23;8.73;;;30.70;49.30;;;;;;5036803;28;20037;-85
2021/08/13 11:43:49;;;;;;;9.80;9.38;;;30.80;49.20;;;;;;5034165;28;20052;-85
2021/08/13 11:46:29;;;;;;;9.32;8.90;;;31.10;49.00;;;;;;5033156;28;20033;-85
2021/08/13 11:48:59;;;;;;;8.18;7.72;;;31.30;48.60;;;;;;5036769;28;20037;-85
2021/08/13 11:51:26;;;;;;;7.50;7.18;;;31.40;48.50;;;;;;5034852;28;20511;-83
2021/08/13 11:53:52;;;;;;;7.35;6.95;;;31.40;48.30;;;;;;5033734;28;20382;-84
2021/08/13 11:56:26;;;;;;;7.68;7.28;;;31.40;48.30;;;;;;5050822;28;20033;-85
2021/08/13 11:59:01;;;;;;;7.78;7.28;;;31.30;48.30;;;;;;5046712;28;20044;-86
2021/08/13 12:01:28;;;;;;;7.28;6.97;;;31.40;48.20;;;;;;5041606;28;20029;-85
2021/08/13 12:03:54;;;;;;;7.70;7.30;;;31.40;48.20;;;;;;5038634;28;20036;-86
2021/08/13 12:06:20;;;;;;;7.28;6.88;;;31.50;48.20;;;;;;5046743;28;20026;-85
2021/08/13 12:08:46;;;;;;;7.95;7.53;;;31.50;47.80;;;;;;5034178;28;20033;-85
2021/08/13 12:11:19;;;;;;;6.63;6.32;;;31.50;47.80;;;;;;5034654;28;20462;-85
2021/08/13 12:13:46;;;;;;;7.38;6.88;;;31.50;47.70;;;;;;5019735;28;20045;-85
2021/08/13 12:16:16;;;;;;;7.18;6.78;;;31.60;48.30;;;;;;5034764;28;20037;-86
2021/08/13 12:18:42;;;;;;;;;;;31.80;47.60;;;;;;5019046;28;20405;-85
2021/08/13 12:21:08;;;;;;;6.63;6.32;;;31.90;47.30;;;;;;5015245;28;19916;-86
2021/08/13 12:23:34;;;;;;;6.35;6.05;;;32.10;47.10;;;;;;5038012;28;20030;-84
2021/08/13 12:26:04;;;;;;;6.20;5.90;;;32.00;47.50;;;;;;5034915;28;20029;-85
2021/08/13 12:28:31;;;;;;;6.65;6.35;;;31.80;47.00;;;;;;5034585;28;20378;-85
2021/08/13 12:31:07;;;;;;;6.75;6.45;;;31.70;47.00;;;;;;5035530;28;20032;-86
2021/08/13 12:33:33;;;;;;;7.47;7.07;;;31.70;46.90;;;;;;5034167;28;20056;-85
2021/08/13 12:35:59;;;;;;;8.25;7.75;;;31.60;47.00;;;;;;5032360;28;20490;-85
2021/08/13 12:38:32;;;;;;;8.02;7.63;;;31.70;46.90;;;;;;5036828;28;20533;-85
2021/08/13 12:40:58;;;;;;;7.10;6.80;;;31.70;46.80;;;;;;5034484;28;20033;-85
2021/08/13 12:43:24;;;;;;;8.25;7.85;;;31.80;46.70;;;;;;5018564;28;20037;-85
2021/08/13 12:45:52;;;;;;;6.55;6.07;;;31.90;46.50;;;;;;5034279;28;20036;-86
2021/08/13 12:48:19;;;;;;;6.40;6.10;;;31.90;46.50;;;;;;5015737;28;20032;-86